createdAt,value
2022-12-23T00:00:43.285Z,70.32
2022-12-23T00:03:10.237Z,74.80
2022-12-23T00:05:38.758Z,74.40
2022-12-23T00:08:08.311Z,66.10
2022-12-23T00:10:39.150Z,73.97
2022-12-23T00:13:24.509Z,68.45
2022-12-23T00:15:51.290Z,76.70
2022-12-23T00:18:18.327Z,72.43
2022-12-23T00:20:45.219Z,73.07
2022-12-23T00:23:11.994Z,83.63
2022-12-23T00:25:43.924Z,77.43
2022-12-23T00:28:21.411Z,81.82
2022-12-23T00:31:08.615Z,74.57
2022-12-23T00:33:41.239Z,76.13
2022-12-23T00:36:18.857Z,83.28
2022-12-23T00:39:04.757Z,72.72
2022-12-23T00:41:50.245Z,80.18
2022-12-23T00:44:17.390Z,81.20
2022-12-23T00:46:44.482Z,71.75
2022-12-23T00:49:34.912Z,78.15
2022-12-23T00:52:02.492Z,80.15
2022-12-23T00:54:29.960Z,82.40
2022-12-23T00:56:56.908Z,81.63
2022-12-23T00:59:23.688Z,71.78
2022-12-23T01:02:09.353Z,83.35
2022-12-23T01:04:54.901Z,74.38
2022-12-23T01:07:21.750Z,75.28
2022-12-23T01:09:48.537Z,73.03
2022-12-23T01:12:15.409Z,75.75
2022-12-23T01:14:42.219Z,77.35
2022-12-23T01:17:09.585Z,74.07
2022-12-23T01:19:36.856Z,71.10
2022-12-23T01:22:03.863Z,71.53
2022-12-23T01:24:31.953Z,71.50
2022-12-23T01:26:59.296Z,77.78
2022-12-23T01:29:26.599Z,68.45
2022-12-23T01:31:53.438Z,74.93
2022-12-23T01:34:20.336Z,79.78
2022-12-23T01:36:47.161Z,83.40
2022-12-23T01:39:13.946Z,71.25
2022-12-23T01:41:59.179Z,79.57
2022-12-23T01:44:49.128Z,78.22
2022-12-23T01:47:36.902Z,74.75
2022-12-23T01:50:10.003Z,76.72
2022-12-23T01:53:04.589Z,70.70
2022-12-23T01:55:40.188Z,73.05
2022-12-23T01:58:14.883Z,71.95
2022-12-23T02:01:01.250Z,74.40
2022-12-23T02:03:43.421Z,78.22
2022-12-23T02:06:38.632Z,82.28
2022-12-23T02:09:17.584Z,72.28
2022-12-23T02:12:12.271Z,74.90
2022-12-23T02:15:04.341Z,76.05
2022-12-23T02:17:57.391Z,80.88
2022-12-23T02:20:54.264Z,69.18
2022-12-23T02:23:51.770Z,80.55
2022-12-23T02:26:24.234Z,72.25
2022-12-23T02:29:12.570Z,76.00
2022-12-23T02:31:51.211Z,73.85
2022-12-23T02:35:00.634Z,75.03
2022-12-23T02:37:35.935Z,79.43
2022-12-23T02:40:05.784Z,76.15
2022-12-23T02:42:58.518Z,77.97
2022-12-23T02:45:32.865Z,74.45
2022-12-23T02:48:20.248Z,73.90
2022-12-23T02:50:47.838Z,73.22
2022-12-23T02:53:22.387Z,67.15
2022-12-23T02:55:51.772Z,71.78
2022-12-23T02:58:20.905Z,69.53
2022-12-23T03:00:50.014Z,64.05
2022-12-23T03:03:21.322Z,70.82
2022-12-23T03:05:50.102Z,73.00
2022-12-23T03:08:22.610Z,71.05
2022-12-23T03:11:10.919Z,71.22
2022-12-23T03:13:52.426Z,74.68
2022-12-23T03:16:42.833Z,75.93
2022-12-23T03:19:20.985Z,75.97
2022-12-23T03:22:08.436Z,70.05
2022-12-23T03:25:05.769Z,71.75
2022-12-23T03:28:03.071Z,74.68
2022-12-23T03:30:31.306Z,74.43
2022-12-23T03:33:10.415Z,73.82
2022-12-23T03:35:47.964Z,75.57
2022-12-23T03:38:18.186Z,81.15
2022-12-23T03:40:50.526Z,79.07
2022-12-23T03:45:54.696Z,74.35
2022-12-23T03:48:31.468Z,70.00
2022-12-23T03:51:04.328Z,72.07
2022-12-23T03:53:42.214Z,75.28
2022-12-23T03:56:14.148Z,70.53
2022-12-23T03:58:47.445Z,71.97
2022-12-23T04:01:14.377Z,80.55
2022-12-23T04:03:49.260Z,74.05
2022-12-23T04:06:19.578Z,75.88
2022-12-23T04:08:48.788Z,76.50
2022-12-23T04:11:15.623Z,78.95
2022-12-23T04:13:42.482Z,80.53
2022-12-23T04:16:09.910Z,77.00
2022-12-23T04:18:36.767Z,74.53
2022-12-23T04:21:03.777Z,75.40
2022-12-23T04:23:30.511Z,71.43
2022-12-23T04:25:57.287Z,72.70
2022-12-23T04:28:24.090Z,79.32
2022-12-23T04:30:50.902Z,80.13
2022-12-23T04:33:17.870Z,74.03
2022-12-23T04:35:44.713Z,81.20
2022-12-23T04:38:11.544Z,82.60
2022-12-23T04:40:38.779Z,79.43
2022-12-23T04:43:05.592Z,76.95
2022-12-23T04:45:33.157Z,75.78
2022-12-23T04:47:59.993Z,77.82
2022-12-23T04:50:26.828Z,79.75
2022-12-23T04:52:53.809Z,75.30
2022-12-23T04:55:20.841Z,73.97
2022-12-23T04:57:47.816Z,75.55
2022-12-23T05:00:15.199Z,70.65
2022-12-23T05:02:42.148Z,74.05
2022-12-23T05:05:09.546Z,72.35
2022-12-23T05:07:36.383Z,81.05
2022-12-23T05:10:03.346Z,77.03
2022-12-23T05:12:31.085Z,75.45
2022-12-23T05:14:58.064Z,73.45
2022-12-23T05:17:24.961Z,74.38
2022-12-23T05:19:51.805Z,76.53
2022-12-23T05:22:18.940Z,75.88
2022-12-23T05:24:45.839Z,80.57
2022-12-23T05:27:12.672Z,78.60
2022-12-23T05:29:39.558Z,80.07
2022-12-23T05:32:06.481Z,83.63
2022-12-23T05:34:33.344Z,77.63
2022-12-23T05:37:00.271Z,83.60
2022-12-23T05:39:27.173Z,87.10
2022-12-23T05:41:54.174Z,76.78
2022-12-23T05:44:21.297Z,80.22
2022-12-23T05:46:48.126Z,82.22
2022-12-23T05:49:15.146Z,84.95
2022-12-23T05:51:42.589Z,80.07
2022-12-23T05:54:09.523Z,92.60
2022-12-23T05:56:36.358Z,93.60
2022-12-23T05:59:03.845Z,90.65
2022-12-23T06:01:30.782Z,91.32
2022-12-23T06:03:57.807Z,95.25
2022-12-23T06:06:24.786Z,101.03
2022-12-23T06:08:57.521Z,99.82
2022-12-23T06:11:26.519Z,103.53
2022-12-23T06:13:53.329Z,105.95
2022-12-23T06:16:20.247Z,93.95
2022-12-23T06:18:47.228Z,106.05
2022-12-23T06:21:14.228Z,94.53
2022-12-23T06:23:41.172Z,91.05
2022-12-23T06:26:09.487Z,96.05
2022-12-23T06:28:36.638Z,94.82
2022-12-23T06:31:03.681Z,83.95
2022-12-23T06:33:30.901Z,85.97
2022-12-23T06:36:05.550Z,82.43
2022-12-23T06:38:40.721Z,85.88
2022-12-23T06:41:10.798Z,86.57
2022-12-23T06:43:37.803Z,88.38
2022-12-23T06:46:04.859Z,84.85
2022-12-23T06:48:37.736Z,84.75
2022-12-23T06:51:04.837Z,69.13
2022-12-23T06:53:35.463Z,55.83
2022-12-23T06:56:03.757Z,47.97
2022-12-23T06:58:31.043Z,41.55
2022-12-23T07:01:00.542Z,39.75
2022-12-23T07:03:28.745Z,41.78
2022-12-23T07:06:01.183Z,34.85
2022-12-23T07:08:28.919Z,35.08
2022-12-23T07:11:00.029Z,36.13
2022-12-23T07:13:27.918Z,33.00
2022-12-23T07:15:58.850Z,33.55
2022-12-23T07:18:29.525Z,33.70
2022-12-23T07:21:22.938Z,32.13
2022-12-23T07:23:57.653Z,35.38
2022-12-23T07:26:25.993Z,34.33
2022-12-23T07:28:53.190Z,37.15
2022-12-23T07:31:25.910Z,42.92
2022-12-23T07:33:55.316Z,33.05
2022-12-23T07:36:22.311Z,36.83
2022-12-23T07:38:52.707Z,35.88
2022-12-23T07:41:19.668Z,37.58
2022-12-23T07:43:47.113Z,41.28
2022-12-23T07:46:14.245Z,34.58
2022-12-23T07:48:44.381Z,45.03
2022-12-23T07:51:11.460Z,35.45
2022-12-23T07:53:38.638Z,36.42
2022-12-23T07:56:06.089Z,36.03
2022-12-23T07:58:34.554Z,35.88
2022-12-23T08:01:07.971Z,36.28
2022-12-23T08:03:35.413Z,42.00
2022-12-23T08:06:05.172Z,41.83
2022-12-23T08:08:32.923Z,42.58
2022-12-23T08:11:01.894Z,44.97
2022-12-23T08:13:28.987Z,46.72
2022-12-23T08:15:58.406Z,50.10
2022-12-23T08:18:26.488Z,61.60
2022-12-23T08:20:58.498Z,68.15
2022-12-23T08:23:26.677Z,61.70
2022-12-23T08:26:00.592Z,60.35
2022-12-23T08:28:28.274Z,62.20
2022-12-23T08:33:38.259Z,56.05
2022-12-23T08:36:07.348Z,50.22
2022-12-23T08:38:38.429Z,46.42
2022-12-23T08:41:10.546Z,45.50
2022-12-23T08:43:37.848Z,52.03
2022-12-23T08:46:05.561Z,42.80
2022-12-23T08:48:36.154Z,37.30
2022-12-23T08:51:12.539Z,37.53
2022-12-23T08:53:42.658Z,38.08
2022-12-23T08:56:16.813Z,32.88
2022-12-23T08:58:48.236Z,33.50
2022-12-23T09:01:18.326Z,21.63
2022-12-23T09:03:46.226Z,31.85
2022-12-23T09:06:24.685Z,34.83
2022-12-23T09:08:55.742Z,34.85
2022-12-23T09:11:29.088Z,36.45
2022-12-23T09:13:58.006Z,37.58
2022-12-23T09:16:26.829Z,34.97
2022-12-23T09:18:54.063Z,41.97
2022-12-23T09:21:23.167Z,36.95
2022-12-23T09:23:52.890Z,44.10
2022-12-23T09:26:29.142Z,46.55
2022-12-23T09:29:07.489Z,44.00
2022-12-23T09:31:43.379Z,48.33
2022-12-23T09:34:13.232Z,49.15
2022-12-23T09:36:40.093Z,52.53
2022-12-23T09:39:06.914Z,53.10
2022-12-23T09:42:03.457Z,52.13
2022-12-23T09:45:05.710Z,53.20
2022-12-23T09:47:34.196Z,54.22
2022-12-23T09:50:04.884Z,53.83
2022-12-23T09:52:57.838Z,56.53
2022-12-23T09:55:44.051Z,48.45
2022-12-23T09:58:25.506Z,50.42
2022-12-23T10:01:18.988Z,51.53
2022-12-23T10:04:11.542Z,52.50
2022-12-23T10:09:10.175Z,50.88
2022-12-23T10:11:42.791Z,48.30
2022-12-23T10:17:10.207Z,44.60
2022-12-23T10:19:42.169Z,53.38
2022-12-23T10:22:23.043Z,88.15
2022-12-23T10:24:50.489Z,58.10
2022-12-23T10:27:35.840Z,51.22
2022-12-23T10:30:42.506Z,50.53
2022-12-23T10:33:18.109Z,53.17
2022-12-23T10:36:06.214Z,68.93
2022-12-23T10:41:34.162Z,57.05
2022-12-23T10:44:39.344Z,49.70
2022-12-23T10:47:24.073Z,47.95
2022-12-23T10:53:59.742Z,50.45
2022-12-23T10:56:28.785Z,49.05
2022-12-23T10:59:00.897Z,61.10
2022-12-23T11:01:31.410Z,48.97
2022-12-23T11:04:36.576Z,55.50
2022-12-23T11:07:42.036Z,47.10
2022-12-23T11:10:08.128Z,50.08
2022-12-23T11:12:44.475Z,53.35
2022-12-23T11:15:30.965Z,51.83
2022-12-23T11:18:19.528Z,48.38
2022-12-23T11:21:03.663Z,53.85
2022-12-23T11:23:36.537Z,56.80
2022-12-23T11:26:10.023Z,51.58
2022-12-23T11:28:40.512Z,45.33
2022-12-23T11:31:12.027Z,44.10
2022-12-23T11:33:49.109Z,46.47
2022-12-23T11:36:24.534Z,44.47
2022-12-23T11:38:53.001Z,44.13
2022-12-23T11:41:22.855Z,43.92
2022-12-23T11:44:01.620Z,45.08
2022-12-23T11:46:32.055Z,43.05
2022-12-23T11:49:34.251Z,45.80
2022-12-23T11:52:07.338Z,43.13
2022-12-23T11:54:34.649Z,42.20
2022-12-23T11:57:05.839Z,40.72
2022-12-23T11:59:38.111Z,40.57
2022-12-23T12:05:00.826Z,44.15
2022-12-23T12:07:28.876Z,42.17
2022-12-23T12:09:58.940Z,43.10
2022-12-23T12:12:27.498Z,38.53
2022-12-23T12:14:57.349Z,39.30
2022-12-23T12:17:36.655Z,38.35
2022-12-23T12:20:13.920Z,41.50
2022-12-23T12:22:52.742Z,41.45
2022-12-23T12:25:42.853Z,45.00
2022-12-23T12:28:14.818Z,46.78
2022-12-23T12:31:02.841Z,43.58
2022-12-23T12:33:51.232Z,42.70
2022-12-23T12:36:39.470Z,40.08
2022-12-23T12:39:23.022Z,45.03
2022-12-23T12:42:11.008Z,44.67
2022-12-23T12:44:58.541Z,42.35
2022-12-23T12:47:53.181Z,37.45
2022-12-23T12:50:39.224Z,41.55
2022-12-23T12:53:19.113Z,46.22
2022-12-23T12:55:52.951Z,40.38
2022-12-23T12:58:23.852Z,46.30
2022-12-23T13:01:15.614Z,41.55
2022-12-23T13:03:58.279Z,41.40
2022-12-23T13:06:25.256Z,40.58
2022-12-23T13:12:29.005Z,39.10
2022-12-23T13:15:19.133Z,45.35
2022-12-23T13:18:14.611Z,44.28
2022-12-23T13:20:57.626Z,46.20
2022-12-23T13:23:45.473Z,42.03
2022-12-23T13:26:38.317Z,39.45
2022-12-23T13:29:35.693Z,41.92
2022-12-23T13:32:13.388Z,39.58
2022-12-23T13:37:58.018Z,51.08
2022-12-23T13:40:36.704Z,47.95
2022-12-23T13:43:19.244Z,43.45
2022-12-23T13:48:38.739Z,44.47
2022-12-23T13:51:19.519Z,46.35
2022-12-23T13:54:31.804Z,46.15
2022-12-23T13:57:08.965Z,44.38
2022-12-23T13:59:39.768Z,43.22
2022-12-23T14:02:42.081Z,45.67
2022-12-23T14:05:31.136Z,41.97
2022-12-23T14:08:22.877Z,42.85
2022-12-23T14:11:21.151Z,48.65
2022-12-23T14:13:56.489Z,47.88
2022-12-23T14:16:41.764Z,51.70
2022-12-23T14:19:34.178Z,48.13
2022-12-23T14:22:16.340Z,42.38
2022-12-23T14:24:51.992Z,46.45
2022-12-23T14:27:40.714Z,48.75
2022-12-23T14:30:17.373Z,69.15
2022-12-23T14:32:52.515Z,48.67
2022-12-23T14:35:25.648Z,46.05
2022-12-23T14:38:05.008Z,50.20
2022-12-23T14:40:37.968Z,47.90
2022-12-23T14:43:43.574Z,52.55
2022-12-23T14:46:36.151Z,51.20
2022-12-23T14:49:36.860Z,58.53
2022-12-23T14:51:56.263Z,51.53
2022-12-23T14:54:39.951Z,51.40
2022-12-23T14:57:21.263Z,50.05
2022-12-23T15:02:43.264Z,50.58
2022-12-23T15:05:10.862Z,52.95
2022-12-23T15:07:42.729Z,44.55
2022-12-23T15:10:20.178Z,47.75
2022-12-23T15:15:38.741Z,60.75
2022-12-23T15:18:17.144Z,52.70
2022-12-23T15:20:44.742Z,58.22
2022-12-23T15:23:16.551Z,53.38
2022-12-23T15:25:52.315Z,59.67
2022-12-23T15:28:23.219Z,63.50
2022-12-23T15:30:56.697Z,73.55
2022-12-23T15:38:51.043Z,79.63
2022-12-23T15:41:22.616Z,69.68
2022-12-23T15:43:56.437Z,68.32
2022-12-23T15:46:44.165Z,59.47
2022-12-23T15:49:13.202Z,57.78
2022-12-23T15:54:45.163Z,65.63
2022-12-23T15:57:20.811Z,58.85
2022-12-23T15:59:49.486Z,60.08
2022-12-23T16:08:30.713Z,80.32
2022-12-23T16:11:17.541Z,76.97
2022-12-23T16:13:58.762Z,63.08
2022-12-23T16:16:41.510Z,58.70
2022-12-23T16:19:38.631Z,63.92
2022-12-23T16:22:35.188Z,62.75
2022-12-23T16:25:22.349Z,61.53
2022-12-23T16:27:57.836Z,60.28
2022-12-23T16:30:39.271Z,60.05
2022-12-23T16:33:23.901Z,58.05
2022-12-23T16:35:53.062Z,60.85
2022-12-23T16:38:28.115Z,56.92
2022-12-23T16:40:57.992Z,59.70
2022-12-23T16:43:39.034Z,66.68
2022-12-23T16:46:06.659Z,66.03
2022-12-23T16:48:33.600Z,66.82
2022-12-23T16:51:03.340Z,67.97
2022-12-23T16:53:34.465Z,66.13
2022-12-23T16:56:03.240Z,74.55
2022-12-23T17:04:01.388Z,63.22
2022-12-23T17:06:28.609Z,65.03
2022-12-23T17:08:57.065Z,66.25
2022-12-23T17:11:33.462Z,62.67
2022-12-23T17:16:48.668Z,73.88
2022-12-23T17:19:20.506Z,69.18
2022-12-23T17:22:02.180Z,57.92
2022-12-23T17:24:29.326Z,58.95
2022-12-23T17:26:56.985Z,57.70
2022-12-23T17:29:25.791Z,60.25
2022-12-23T17:31:52.969Z,62.72
2022-12-23T17:34:24.854Z,67.60
2022-12-23T17:36:53.447Z,65.43
2022-12-23T17:39:21.418Z,64.47
2022-12-23T17:41:48.928Z,63.15
2022-12-23T17:44:18.810Z,67.93
2022-12-23T17:46:47.204Z,79.13
2022-12-23T17:49:14.043Z,67.85
2022-12-23T17:51:42.973Z,64.10
2022-12-23T17:57:19.477Z,67.03
2022-12-23T17:59:54.971Z,77.63
2022-12-23T18:02:39.606Z,70.10
2022-12-23T18:05:32.603Z,73.45
2022-12-23T18:08:02.828Z,70.35
2022-12-23T18:10:50.486Z,76.68
2022-12-23T18:13:20.358Z,91.85
2022-12-23T18:15:48.395Z,90.57
2022-12-23T18:18:27.581Z,85.18
2022-12-23T18:21:01.388Z,78.32
2022-12-23T18:23:32.677Z,52.58
2022-12-23T18:26:07.985Z,59.95
2022-12-23T18:28:35.481Z,65.18
2022-12-23T18:31:02.811Z,58.67
2022-12-23T18:33:30.379Z,64.97
2022-12-23T18:35:58.447Z,62.65
2022-12-23T18:38:25.610Z,66.32
2022-12-23T18:40:54.707Z,64.75
2022-12-23T18:43:28.646Z,57.00
2022-12-23T18:45:56.508Z,63.25
2022-12-23T18:48:24.632Z,60.05
2022-12-23T18:51:01.908Z,61.20
2022-12-23T18:53:28.946Z,57.30
2022-12-23T18:55:55.923Z,71.82
2022-12-23T18:58:24.405Z,70.30
2022-12-23T19:00:56.079Z,90.47
2022-12-23T19:03:27.561Z,163.15
2022-12-23T19:05:56.829Z,76.55
2022-12-23T19:08:27.512Z,104.75
2022-12-23T19:10:55.835Z,72.00
2022-12-23T19:13:24.826Z,69.35
2022-12-23T19:15:51.990Z,70.55
2022-12-23T19:18:22.547Z,68.22
2022-12-23T19:20:49.741Z,70.93
2022-12-23T19:23:17.512Z,68.30
2022-12-23T19:25:52.578Z,71.88
2022-12-23T19:28:22.596Z,74.68
2022-12-23T19:30:49.904Z,84.43
2022-12-23T19:33:17.261Z,84.53
2022-12-23T19:35:45.315Z,72.40
2022-12-23T19:38:12.556Z,59.30
2022-12-23T19:40:40.463Z,66.25
2022-12-23T19:43:07.705Z,57.45
2022-12-23T19:45:35.488Z,69.60
2022-12-23T19:48:02.501Z,69.13
2022-12-23T19:50:29.873Z,60.83
2022-12-23T19:55:58.744Z,60.75
2022-12-23T20:01:25.069Z,64.40
2022-12-23T20:03:54.036Z,72.75
2022-12-23T20:06:27.488Z,61.70
2022-12-23T20:09:00.332Z,64.45
2022-12-23T20:11:31.011Z,56.90
2022-12-23T20:13:58.553Z,59.10
2022-12-23T20:16:28.262Z,60.80
2022-12-23T20:18:55.960Z,57.33
2022-12-23T20:21:23.497Z,60.67
2022-12-23T20:26:59.897Z,60.63
2022-12-23T20:29:28.640Z,56.97
2022-12-23T20:31:58.931Z,52.33
2022-12-23T20:34:26.995Z,59.47
2022-12-23T20:36:54.234Z,60.65
2022-12-23T20:39:22.279Z,77.45
2022-12-23T20:41:49.467Z,75.68
2022-12-23T20:49:51.564Z,60.90
2022-12-23T20:57:57.315Z,55.70
2022-12-23T21:00:32.526Z,59.72
2022-12-23T21:03:03.808Z,61.33
2022-12-23T21:05:34.246Z,60.03
2022-12-23T21:08:10.699Z,55.35
2022-12-23T21:16:10.657Z,84.13
2022-12-23T21:18:45.923Z,70.72
2022-12-23T21:21:20.954Z,58.50
2022-12-23T21:23:48.547Z,64.43
2022-12-23T21:26:19.892Z,60.92
2022-12-23T21:28:49.096Z,57.60
2022-12-23T21:31:21.691Z,49.50
2022-12-23T21:33:50.547Z,59.10
2022-12-23T21:36:20.573Z,64.32
2022-12-23T21:38:53.426Z,61.13
2022-12-23T21:41:23.481Z,59.65
2022-12-23T21:43:51.099Z,62.38
2022-12-23T21:46:22.719Z,64.50
2022-12-23T21:48:55.510Z,62.55
2022-12-23T21:51:25.747Z,65.97
2022-12-23T21:53:55.550Z,66.40
2022-12-23T21:56:30.207Z,70.85
2022-12-23T21:59:12.470Z,63.78
2022-12-23T22:07:25.983Z,62.97
2022-12-23T22:09:53.614Z,58.63
2022-12-23T22:12:20.482Z,56.30
2022-12-23T22:14:48.101Z,61.67
2022-12-23T22:17:14.944Z,61.30
2022-12-23T22:19:41.958Z,62.28
2022-12-23T22:22:08.891Z,70.45
2022-12-23T22:24:35.723Z,66.35
2022-12-23T22:27:02.778Z,67.43
2022-12-23T22:29:29.717Z,57.40
2022-12-23T22:31:56.932Z,58.80
2022-12-23T22:37:07.786Z,58.83
2022-12-23T22:39:34.908Z,57.40
2022-12-23T22:42:03.050Z,60.55
2022-12-23T22:44:32.372Z,67.35
2022-12-23T22:46:59.308Z,67.38
2022-12-23T22:49:26.460Z,61.88
2022-12-23T22:51:53.700Z,65.00
2022-12-23T22:54:20.577Z,66.25
2022-12-23T22:56:47.525Z,53.70
2022-12-23T22:59:25.730Z,60.45
2022-12-23T23:01:54.322Z,60.05
2022-12-23T23:04:21.878Z,61.53
2022-12-23T23:06:52.165Z,59.42
2022-12-23T23:09:20.575Z,64.38
2022-12-23T23:11:47.667Z,59.25
2022-12-23T23:14:15.031Z,69.57
2022-12-23T23:16:42.914Z,111.47
2022-12-23T23:24:24.104Z,136.15
2022-12-23T23:26:55.039Z,104.78
2022-12-23T23:29:22.796Z,90.30
2022-12-23T23:31:49.639Z,80.55
2022-12-23T23:34:16.748Z,76.93
2022-12-23T23:36:43.594Z,122.28
2022-12-23T23:39:12.603Z,112.28
2022-12-23T23:41:40.929Z,88.65
2022-12-23T23:44:08.986Z,85.20
2022-12-23T23:46:36.201Z,77.13
2022-12-23T23:49:03.365Z,76.60
2022-12-23T23:51:30.357Z,76.68
2022-12-23T23:53:57.196Z,76.32
2022-12-23T23:56:26.246Z,79.60
2022-12-23T23:58:54.684Z,75.38
